createdAt,value
2017-03-08T00:00:06.500Z,0
2017-03-08T00:01:17.328Z,0
2017-03-08T00:02:27.099Z,0
2017-03-08T00:03:37.306Z,0
2017-03-08T00:04:47.519Z,0
2017-03-08T00:05:58.152Z,0
2017-03-08T00:07:08.411Z,0
2017-03-08T00:08:18.160Z,0
2017-03-08T00:09:28.380Z,0
2017-03-08T00:10:38.155Z,0
2017-03-08T00:11:47.899Z,0
2017-03-08T00:12:58.156Z,0
2017-03-08T00:14:08.373Z,0
2017-03-08T00:15:18.175Z,0
2017-03-08T00:16:27.509Z,0
2017-03-08T00:17:36.850Z,0
2017-03-08T00:18:46.673Z,0
2017-03-08T00:19:56.636Z,0
2017-03-08T00:21:06.454Z,0
2017-03-08T00:22:16.225Z,0
2017-03-08T00:23:26.012Z,0
2017-03-08T00:24:35.985Z,0
2017-03-08T00:25:46.193Z,0
2017-03-08T00:26:55.943Z,0
2017-03-08T00:28:05.708Z,0
2017-03-08T00:29:15.486Z,0
2017-03-08T00:30:25.833Z,0
2017-03-08T00:31:36.032Z,0
2017-03-08T00:32:45.352Z,0
2017-03-08T00:33:55.101Z,0
2017-03-08T00:35:04.854Z,0
2017-03-08T00:36:15.971Z,0
2017-03-08T00:37:26.174Z,0
2017-03-08T00:38:35.482Z,0
2017-03-08T00:39:45.249Z,0
2017-03-08T00:40:55.032Z,0
2017-03-08T00:42:04.860Z,0
2017-03-08T00:43:14.634Z,0
2017-03-08T00:44:24.397Z,0
2017-03-08T00:45:34.158Z,0
2017-03-08T00:46:44.360Z,0
2017-03-08T00:47:54.189Z,0
2017-03-08T00:49:04.840Z,0
2017-03-08T00:50:14.585Z,0
2017-03-08T00:51:24.764Z,0
2017-03-08T00:52:34.552Z,0
2017-03-08T00:53:44.815Z,0
2017-03-08T00:54:55.027Z,0
2017-03-08T00:56:05.219Z,0
2017-03-08T00:57:15.029Z,0
2017-03-08T00:58:25.251Z,0
2017-03-08T00:59:35.059Z,0
2017-03-08T01:00:44.833Z,0
2017-03-08T01:01:54.599Z,0
2017-03-08T01:03:03.922Z,0
2017-03-08T01:04:14.136Z,0
2017-03-08T01:05:24.837Z,0
2017-03-08T01:06:35.023Z,0
2017-03-08T01:07:45.265Z,0
2017-03-08T01:08:55.470Z,0
2017-03-08T01:10:05.651Z,0
2017-03-08T01:11:16.000Z,0
2017-03-08T01:12:26.205Z,0
2017-03-08T01:13:35.530Z,0
2017-03-08T01:14:45.285Z,0
2017-03-08T01:15:55.485Z,0
2017-03-08T01:17:05.833Z,0
2017-03-08T01:18:16.046Z,0
2017-03-08T01:19:26.257Z,0
2017-03-08T01:20:35.585Z,0
2017-03-08T01:21:45.351Z,0
2017-03-08T01:22:55.148Z,0
2017-03-08T01:24:05.332Z,0
2017-03-08T01:25:15.074Z,0
2017-03-08T01:26:24.836Z,0
2017-03-08T01:27:34.585Z,0
2017-03-08T01:28:44.403Z,0
2017-03-08T01:29:54.618Z,0
2017-03-08T01:31:04.816Z,0
2017-03-08T01:32:15.458Z,0
2017-03-08T01:33:25.231Z,0
2017-03-08T01:34:35.500Z,0
2017-03-08T01:35:45.717Z,0
2017-03-08T01:36:55.593Z,0
2017-03-08T01:38:05.804Z,0
2017-03-08T01:39:16.007Z,0
2017-03-08T01:40:26.266Z,0
2017-03-08T01:41:36.015Z,0
2017-03-08T01:42:45.768Z,0
2017-03-08T01:43:55.144Z,0
2017-03-08T01:45:06.249Z,0
2017-03-08T01:46:16.548Z,0
2017-03-08T01:47:26.305Z,0
2017-03-08T01:48:36.085Z,0
2017-03-08T01:49:45.828Z,0
2017-03-08T01:50:55.173Z,0
2017-03-08T01:52:04.989Z,0
2017-03-08T01:53:16.050Z,0
2017-03-08T01:54:25.792Z,0
2017-03-08T01:55:36.016Z,0
2017-03-08T01:56:46.207Z,0
2017-03-08T01:57:55.994Z,0
2017-03-08T01:59:05.741Z,0
2017-03-08T02:00:15.953Z,0
2017-03-08T02:01:27.048Z,0
2017-03-08T02:02:36.377Z,0
2017-03-08T02:03:45.758Z,0
2017-03-08T02:04:55.979Z,0
2017-03-08T02:06:06.180Z,0
2017-03-08T02:07:15.937Z,0
2017-03-08T02:08:25.263Z,0
2017-03-08T02:09:34.659Z,0
2017-03-08T02:10:44.859Z,0
2017-03-08T02:11:55.494Z,0
2017-03-08T02:13:06.679Z,0
2017-03-08T02:14:16.897Z,0
2017-03-08T02:15:27.614Z,0
2017-03-08T02:16:37.359Z,0
2017-03-08T02:17:47.152Z,0
2017-03-08T02:18:57.354Z,0
2017-03-08T02:20:07.127Z,0
2017-03-08T02:21:16.946Z,0
2017-03-08T02:22:27.199Z,0
2017-03-08T02:23:38.299Z,0
2017-03-08T02:24:48.063Z,0
2017-03-08T02:25:57.821Z,0
2017-03-08T02:27:08.549Z,0
2017-03-08T02:28:18.343Z,0
2017-03-08T02:29:28.100Z,0
2017-03-08T02:30:37.896Z,0
2017-03-08T02:31:47.678Z,0
2017-03-08T02:32:57.480Z,0
2017-03-08T02:34:07.248Z,0
2017-03-08T02:35:17.022Z,0
2017-03-08T02:36:26.799Z,0
2017-03-08T02:37:36.552Z,0
2017-03-08T02:38:47.254Z,0
2017-03-08T02:39:57.035Z,0
2017-03-08T02:41:07.289Z,0
2017-03-08T02:42:17.049Z,0
2017-03-08T02:43:26.814Z,0
2017-03-08T02:44:37.074Z,0
2017-03-08T02:45:46.832Z,0
2017-03-08T02:46:56.610Z,0
2017-03-08T02:48:06.819Z,0
2017-03-08T02:49:16.132Z,0
2017-03-08T02:50:25.938Z,0
2017-03-08T02:51:35.694Z,0
2017-03-08T02:52:45.456Z,0
2017-03-08T02:53:54.769Z,0
2017-03-08T02:55:05.424Z,0
2017-03-08T02:56:15.671Z,0
2017-03-08T02:57:25.443Z,0
2017-03-08T02:58:35.642Z,0
2017-03-08T02:59:45.413Z,0
2017-03-08T03:00:55.177Z,0
2017-03-08T03:02:04.553Z,0
2017-03-08T03:03:14.794Z,0
2017-03-08T03:04:25.028Z,0
2017-03-08T03:05:34.780Z,0
2017-03-08T03:06:44.551Z,0
2017-03-08T03:07:54.835Z,0
2017-03-08T03:09:04.605Z,0
2017-03-08T03:10:14.374Z,0
2017-03-08T03:11:23.714Z,0
2017-03-08T03:12:33.912Z,0
2017-03-08T03:13:43.745Z,0
2017-03-08T03:14:53.957Z,0
2017-03-08T03:16:03.732Z,0
2017-03-08T03:17:13.500Z,0
2017-03-08T03:18:23.278Z,0
2017-03-08T03:19:33.104Z,0
2017-03-08T03:20:42.904Z,0
2017-03-08T03:21:52.670Z,0
2017-03-08T03:23:02.462Z,0
2017-03-08T03:24:12.660Z,0
2017-03-08T03:25:22.485Z,0
2017-03-08T03:26:32.258Z,0
2017-03-08T03:27:42.011Z,0
2017-03-08T03:28:51.336Z,0
2017-03-08T03:30:01.109Z,0
2017-03-08T03:31:11.567Z,0
2017-03-08T03:32:21.324Z,0
2017-03-08T03:33:31.089Z,0
2017-03-08T03:34:40.871Z,0
2017-03-08T03:35:50.188Z,0
2017-03-08T03:36:59.569Z,0
2017-03-08T03:38:09.346Z,0
2017-03-08T03:39:19.108Z,0
2017-03-08T03:40:28.865Z,0
2017-03-08T03:41:38.624Z,0
2017-03-08T03:42:48.875Z,0
2017-03-08T03:43:58.640Z,0
2017-03-08T03:45:08.409Z,0
2017-03-08T03:46:19.055Z,0
2017-03-08T03:47:28.396Z,0
2017-03-08T03:48:38.208Z,0
2017-03-08T03:49:47.982Z,0
2017-03-08T03:50:57.745Z,0
2017-03-08T03:52:07.981Z,0
2017-03-08T03:53:17.765Z,0
2017-03-08T03:54:27.607Z,0
2017-03-08T03:55:37.428Z,0
2017-03-08T03:56:47.209Z,0
2017-03-08T03:57:57.002Z,0
2017-03-08T03:59:06.334Z,0
2017-03-08T04:00:16.584Z,0
2017-03-08T04:01:26.354Z,0
2017-03-08T04:02:36.103Z,0
2017-03-08T04:03:45.880Z,0
2017-03-08T04:04:55.642Z,0
2017-03-08T04:06:05.463Z,0
2017-03-08T04:07:14.776Z,0
2017-03-08T04:08:24.537Z,0
2017-03-08T04:09:34.306Z,0
2017-03-08T04:10:43.639Z,0
2017-03-08T04:11:54.779Z,0
2017-03-08T04:13:04.562Z,0
2017-03-08T04:14:14.766Z,0
2017-03-08T04:15:24.552Z,0
2017-03-08T04:16:34.312Z,0
2017-03-08T04:17:44.585Z,0
2017-03-08T04:18:54.384Z,0
2017-03-08T04:20:04.165Z,0
2017-03-08T04:21:13.950Z,0
2017-03-08T04:22:23.725Z,0
2017-03-08T04:23:33.531Z,0
2017-03-08T04:24:43.717Z,0
2017-03-08T04:25:53.487Z,0
2017-03-08T04:27:03.248Z,0
2017-03-08T04:28:13.011Z,0
2017-03-08T04:29:22.966Z,0
2017-03-08T04:30:32.735Z,0
2017-03-08T04:31:42.497Z,0
2017-03-08T04:32:52.262Z,0
2017-03-08T04:34:02.475Z,0
2017-03-08T04:35:12.289Z,0
2017-03-08T04:36:22.499Z,0
2017-03-08T04:37:31.830Z,0
2017-03-08T04:38:42.039Z,0
2017-03-08T04:39:51.821Z,0
2017-03-08T04:41:01.884Z,0
2017-03-08T04:42:11.644Z,0
2017-03-08T04:43:21.420Z,0
2017-03-08T04:44:32.073Z,0
2017-03-08T04:45:41.842Z,0
2017-03-08T04:46:52.096Z,0
2017-03-08T04:48:01.849Z,0
2017-03-08T04:49:11.714Z,0
2017-03-08T04:50:21.048Z,0
2017-03-08T04:51:31.253Z,0
2017-03-08T04:52:40.642Z,0
2017-03-08T04:53:49.987Z,0
2017-03-08T04:54:59.760Z,0
2017-03-08T04:56:09.521Z,0
2017-03-08T04:57:18.841Z,0
2017-03-08T04:58:28.674Z,0
2017-03-08T04:59:39.337Z,0
2017-03-08T05:00:49.114Z,0
2017-03-08T05:01:58.874Z,0
2017-03-08T05:03:09.081Z,0
2017-03-08T05:04:18.910Z,0
2017-03-08T05:05:29.125Z,0
2017-03-08T05:06:39.801Z,0
2017-03-08T05:07:49.997Z,0
2017-03-08T05:09:00.202Z,0
2017-03-08T05:10:09.588Z,0
2017-03-08T05:11:20.221Z,0
2017-03-08T05:12:29.979Z,0
2017-03-08T05:13:39.299Z,0
2017-03-08T05:14:49.079Z,0
2017-03-08T05:15:59.338Z,0
2017-03-08T05:17:09.110Z,0
2017-03-08T05:18:19.324Z,0
2017-03-08T05:19:29.124Z,0
2017-03-08T05:20:39.323Z,0
2017-03-08T05:21:49.152Z,0
2017-03-08T05:22:59.353Z,0
2017-03-08T05:24:09.134Z,0
2017-03-08T05:25:18.908Z,0
2017-03-08T05:26:28.249Z,0
2017-03-08T05:27:37.618Z,0
2017-03-08T05:28:47.383Z,0
2017-03-08T05:29:58.032Z,0
2017-03-08T05:31:07.794Z,0
2017-03-08T05:32:17.565Z,0
2017-03-08T05:33:27.412Z,0
2017-03-08T05:34:37.169Z,0
2017-03-08T05:35:46.502Z,0
2017-03-08T05:36:56.323Z,0
2017-03-08T05:38:06.112Z,0
2017-03-08T05:39:15.478Z,0
2017-03-08T05:40:25.242Z,0
2017-03-08T05:41:35.455Z,0
2017-03-08T05:42:45.213Z,0
2017-03-08T05:43:54.565Z,0
2017-03-08T05:45:04.375Z,0
2017-03-08T05:46:14.172Z,0
2017-03-08T05:47:23.946Z,0
2017-03-08T05:48:33.700Z,0
2017-03-08T05:49:44.336Z,0
2017-03-08T05:50:54.581Z,0
2017-03-08T05:52:05.228Z,0
2017-03-08T05:53:14.988Z,0
2017-03-08T05:54:25.185Z,0
2017-03-08T05:55:34.562Z,0
2017-03-08T05:56:44.378Z,0
2017-03-08T05:57:54.609Z,0
2017-03-08T05:59:04.366Z,0
2017-03-08T06:00:14.139Z,0
2017-03-08T06:01:23.486Z,5
2017-03-08T06:02:33.321Z,5
2017-03-08T06:03:42.650Z,5
2017-03-08T06:04:52.856Z,5
2017-03-08T06:06:03.065Z,5
2017-03-08T06:07:12.850Z,5
2017-03-08T06:08:23.099Z,5
2017-03-08T06:09:33.296Z,5
2017-03-08T06:10:43.052Z,5
2017-03-08T06:11:54.158Z,5
2017-03-08T06:13:03.920Z,10
2017-03-08T06:14:13.729Z,10
2017-03-08T06:15:23.502Z,10
2017-03-08T06:16:33.265Z,10
2017-03-08T06:17:43.040Z,10
2017-03-08T06:18:52.357Z,10
2017-03-08T06:20:01.739Z,10
2017-03-08T06:21:11.050Z,10
2017-03-08T06:22:21.725Z,10
2017-03-08T06:23:31.482Z,15
2017-03-08T06:24:41.711Z,15
2017-03-08T06:25:51.521Z,15
2017-03-08T06:27:01.350Z,15
2017-03-08T06:28:11.555Z,15
2017-03-08T06:29:21.336Z,15
2017-03-08T06:30:31.113Z,15
2017-03-08T06:31:40.935Z,15
2017-03-08T06:32:51.189Z,15
2017-03-08T06:34:00.940Z,20
2017-03-08T06:35:10.722Z,20
2017-03-08T06:36:20.475Z,20
2017-03-08T06:37:30.741Z,20
2017-03-08T06:38:40.522Z,25
2017-03-08T06:39:50.733Z,25
2017-03-08T06:41:00.924Z,25
2017-03-08T06:42:11.136Z,25
2017-03-08T06:43:21.399Z,25
2017-03-08T06:44:31.166Z,25
2017-03-08T06:45:41.357Z,25
2017-03-08T06:46:51.582Z,25
2017-03-08T06:48:01.353Z,25
2017-03-08T06:49:11.223Z,25
2017-03-08T06:50:21.020Z,25
2017-03-08T06:51:31.667Z,25
2017-03-08T06:52:41.436Z,25
2017-03-08T06:53:51.207Z,25
2017-03-08T06:55:01.039Z,20
2017-03-08T06:56:10.832Z,20
2017-03-08T06:57:20.601Z,20
2017-03-08T06:58:30.365Z,20
2017-03-08T06:59:40.121Z,20
2017-03-08T07:00:49.944Z,20
2017-03-08T07:02:00.153Z,20
2017-03-08T07:03:09.935Z,20
2017-03-08T07:04:19.704Z,20
2017-03-08T07:05:29.942Z,20
2017-03-08T07:06:40.791Z,25
2017-03-08T07:07:50.991Z,20
2017-03-08T07:09:01.209Z,20
2017-03-08T07:10:10.981Z,25
2017-03-08T07:11:21.192Z,25
2017-03-08T07:12:31.000Z,25
2017-03-08T07:13:40.777Z,25
2017-03-08T07:14:50.987Z,30
2017-03-08T07:16:01.240Z,30
2017-03-08T07:17:11.021Z,30
2017-03-08T07:18:20.834Z,30
2017-03-08T07:19:31.035Z,30
2017-03-08T07:20:40.812Z,30
2017-03-08T07:21:50.573Z,30
2017-03-08T07:23:00.803Z,35
2017-03-08T07:24:10.732Z,35
2017-03-08T07:25:20.941Z,35
2017-03-08T07:26:31.147Z,35
2017-03-08T07:27:40.896Z,35
2017-03-08T07:28:50.665Z,40
2017-03-08T07:30:00.954Z,40
2017-03-08T07:31:10.271Z,40
2017-03-08T07:32:19.608Z,40
2017-03-08T07:33:29.370Z,35
2017-03-08T07:34:39.163Z,35
2017-03-08T07:35:49.420Z,35
2017-03-08T07:36:59.201Z,35
2017-03-08T07:38:08.966Z,35
2017-03-08T07:39:18.719Z,40
2017-03-08T07:40:28.500Z,45
2017-03-08T07:41:38.313Z,50
2017-03-08T07:42:48.087Z,50
2017-03-08T07:43:57.848Z,50
2017-03-08T07:45:07.616Z,50
2017-03-08T07:46:17.374Z,50
2017-03-08T07:47:27.203Z,50
2017-03-08T07:48:36.981Z,55
2017-03-08T07:49:46.746Z,55
2017-03-08T07:50:56.963Z,60
2017-03-08T07:52:06.292Z,60
2017-03-08T07:53:15.669Z,60
2017-03-08T07:54:26.338Z,65
2017-03-08T07:55:36.996Z,65
2017-03-08T07:56:46.749Z,60
2017-03-08T07:57:56.534Z,60
2017-03-08T07:59:06.483Z,60
2017-03-08T08:00:16.716Z,60
2017-03-08T08:01:26.490Z,65
2017-03-08T08:02:36.255Z,65
2017-03-08T08:03:45.568Z,65
2017-03-08T08:04:55.921Z,65
2017-03-08T08:06:05.686Z,65
2017-03-08T08:07:15.883Z,70
2017-03-08T08:08:26.561Z,75
2017-03-08T08:09:36.317Z,75
2017-03-08T08:10:46.299Z,75
2017-03-08T08:11:56.091Z,75
2017-03-08T08:13:05.861Z,70
2017-03-08T08:14:15.610Z,70
2017-03-08T08:15:25.423Z,70
2017-03-08T08:16:35.677Z,70
2017-03-08T08:17:46.793Z,70
2017-03-08T08:18:57.044Z,70
2017-03-08T08:20:06.891Z,65
2017-03-08T08:21:16.672Z,55
2017-03-08T08:22:26.927Z,50
2017-03-08T08:23:36.688Z,50
2017-03-08T08:24:46.464Z,50
2017-03-08T08:25:56.217Z,55
2017-03-08T08:27:05.979Z,55
2017-03-08T08:28:16.383Z,55
2017-03-08T08:29:27.026Z,50
2017-03-08T08:30:36.787Z,55
2017-03-08T08:31:46.556Z,55
2017-03-08T08:32:56.341Z,55
2017-03-08T08:34:06.158Z,50
2017-03-08T08:35:15.484Z,50
2017-03-08T08:36:25.700Z,50
2017-03-08T08:37:35.917Z,50
2017-03-08T08:38:46.134Z,50
2017-03-08T08:39:56.160Z,50
2017-03-08T08:41:06.373Z,50
2017-03-08T08:42:16.182Z,55
2017-03-08T08:43:25.960Z,55
2017-03-08T08:44:36.177Z,60
2017-03-08T08:45:45.986Z,60
2017-03-08T08:46:55.743Z,60
2017-03-08T08:48:05.520Z,60
2017-03-08T08:49:14.856Z,65
2017-03-08T08:50:25.055Z,70
2017-03-08T08:51:34.880Z,70
2017-03-08T08:52:44.661Z,70
2017-03-08T08:53:54.426Z,65
2017-03-08T08:55:04.195Z,60
2017-03-08T08:56:13.961Z,65
2017-03-08T08:57:23.765Z,75
2017-03-08T08:58:33.967Z,80
2017-03-08T08:59:43.296Z,85
2017-03-08T09:00:53.533Z,85
2017-03-08T09:02:03.751Z,85
2017-03-08T09:03:14.035Z,80
2017-03-08T09:04:24.253Z,80
2017-03-08T09:05:33.610Z,75
2017-03-08T09:06:43.811Z,75
2017-03-08T09:07:54.018Z,70
2017-03-08T09:09:03.829Z,60
2017-03-08T09:10:14.023Z,55
2017-03-08T09:11:23.812Z,50
2017-03-08T09:12:33.598Z,65
2017-03-08T09:13:43.371Z,70
2017-03-08T09:14:53.296Z,75
2017-03-08T09:16:03.069Z,75
2017-03-08T09:17:12.849Z,70
2017-03-08T09:18:23.070Z,65
2017-03-08T09:19:32.840Z,60
2017-03-08T09:20:43.100Z,60
2017-03-08T09:21:53.327Z,60
2017-03-08T09:23:03.556Z,60
2017-03-08T09:24:13.780Z,60
2017-03-08T09:25:23.990Z,60
2017-03-08T09:26:34.262Z,60
2017-03-08T09:27:44.465Z,60
2017-03-08T09:28:54.236Z,60
2017-03-08T09:30:03.571Z,60
2017-03-08T09:31:13.824Z,60
2017-03-08T09:32:23.201Z,60
2017-03-08T09:33:33.403Z,60
2017-03-08T09:34:43.178Z,55
2017-03-08T09:35:52.973Z,55
2017-03-08T09:37:02.298Z,55
2017-03-08T09:38:12.111Z,60
2017-03-08T09:39:22.353Z,60
2017-03-08T09:40:32.134Z,60
2017-03-08T09:41:41.921Z,60
2017-03-08T09:42:52.579Z,60
2017-03-08T09:44:02.413Z,60
2017-03-08T09:45:12.658Z,55
2017-03-08T09:46:22.425Z,55
2017-03-08T09:47:32.627Z,55
2017-03-08T09:48:42.406Z,55
2017-03-08T09:49:52.662Z,55
2017-03-08T09:51:03.301Z,55
2017-03-08T09:52:13.085Z,55
2017-03-08T09:53:22.913Z,60
2017-03-08T09:54:33.106Z,60
2017-03-08T09:55:42.969Z,65
2017-03-08T09:56:52.739Z,70
2017-03-08T09:58:03.383Z,75
2017-03-08T09:59:13.589Z,75
2017-03-08T10:00:22.908Z,75
2017-03-08T10:01:33.187Z,80
2017-03-08T10:02:42.522Z,80
2017-03-08T10:03:52.281Z,75
2017-03-08T10:05:02.483Z,75
2017-03-08T10:06:12.248Z,75
2017-03-08T10:07:22.061Z,75
2017-03-08T10:08:31.832Z,75
2017-03-08T10:09:42.063Z,80
2017-03-08T10:10:51.832Z,85
2017-03-08T10:12:01.638Z,90
2017-03-08T10:13:12.339Z,95
2017-03-08T10:14:22.106Z,105
2017-03-08T10:15:32.329Z,120
2017-03-08T10:16:42.130Z,130
2017-03-08T10:17:52.327Z,125
2017-03-08T10:19:02.129Z,125
2017-03-08T10:20:11.478Z,125
2017-03-08T10:21:21.695Z,120
2017-03-08T10:22:31.448Z,120
2017-03-08T10:23:41.695Z,120
2017-03-08T10:24:51.954Z,120
2017-03-08T10:26:02.164Z,115
2017-03-08T10:27:11.932Z,115
2017-03-08T10:28:21.697Z,115
2017-03-08T10:29:31.911Z,115
2017-03-08T10:30:42.176Z,115
2017-03-08T10:31:51.948Z,115
2017-03-08T10:33:02.143Z,115
2017-03-08T10:34:12.400Z,90
2017-03-08T10:35:22.177Z,90
2017-03-08T10:36:31.594Z,105
2017-03-08T10:37:41.348Z,110
2017-03-08T10:38:51.135Z,115
2017-03-08T10:40:01.335Z,105
2017-03-08T10:41:11.095Z,90
2017-03-08T10:42:21.577Z,105
2017-03-08T10:43:31.333Z,95
2017-03-08T10:44:41.974Z,90
2017-03-08T10:45:52.180Z,90
2017-03-08T10:47:01.931Z,105
2017-03-08T10:48:11.738Z,100
2017-03-08T10:49:21.503Z,110
2017-03-08T10:50:31.742Z,100
2017-03-08T10:51:41.498Z,100
2017-03-08T10:52:51.263Z,100
2017-03-08T10:54:01.088Z,110
2017-03-08T10:55:10.854Z,105
2017-03-08T10:56:21.063Z,105
2017-03-08T10:57:30.824Z,100
2017-03-08T10:58:40.605Z,95
2017-03-08T10:59:49.982Z,90
2017-03-08T11:00:59.755Z,95
2017-03-08T11:02:09.557Z,95
2017-03-08T11:03:20.206Z,85
2017-03-08T11:04:30.420Z,85
2017-03-08T11:05:39.788Z,85
2017-03-08T11:06:49.561Z,85
2017-03-08T11:07:59.775Z,85
2017-03-08T11:09:10.000Z,90
2017-03-08T11:10:20.243Z,85
2017-03-08T11:11:30.515Z,80
2017-03-08T11:12:40.708Z,80
2017-03-08T11:13:50.927Z,80
2017-03-08T11:15:00.682Z,85
2017-03-08T11:16:10.459Z,80
2017-03-08T11:17:20.388Z,75
2017-03-08T11:18:30.145Z,75
2017-03-08T11:19:39.927Z,70
2017-03-08T11:20:50.125Z,65
2017-03-08T11:21:59.445Z,65
2017-03-08T11:23:08.834Z,65
2017-03-08T11:24:18.607Z,70
2017-03-08T11:25:28.820Z,70
2017-03-08T11:26:39.457Z,60
2017-03-08T11:27:48.785Z,65
2017-03-08T11:28:59.506Z,75
2017-03-08T11:30:09.281Z,75
2017-03-08T11:31:19.050Z,80
2017-03-08T11:32:28.818Z,80
2017-03-08T11:33:39.481Z,75
2017-03-08T11:34:49.309Z,70
2017-03-08T11:35:59.515Z,75
2017-03-08T11:37:09.280Z,75
2017-03-08T11:38:19.069Z,70
2017-03-08T11:39:28.411Z,70
2017-03-08T11:40:38.228Z,70
2017-03-08T11:41:47.976Z,65
2017-03-08T11:42:58.166Z,65
2017-03-08T11:44:07.923Z,70
2017-03-08T11:45:17.688Z,70
2017-03-08T11:46:27.653Z,70
2017-03-08T11:47:37.842Z,70
2017-03-08T11:48:48.051Z,70
2017-03-08T11:49:58.273Z,75
2017-03-08T11:51:08.474Z,75
2017-03-08T11:52:18.275Z,75
2017-03-08T11:53:28.488Z,75
2017-03-08T11:54:38.241Z,80
2017-03-08T11:55:48.458Z,75
2017-03-08T11:56:58.658Z,75
2017-03-08T11:58:08.464Z,75
2017-03-08T11:59:18.666Z,75
2017-03-08T12:00:28.475Z,75
2017-03-08T12:01:38.684Z,75
2017-03-08T12:02:48.441Z,70
2017-03-08T12:03:58.263Z,70
2017-03-08T12:05:08.041Z,70
2017-03-08T12:06:17.790Z,70
2017-03-08T12:07:27.547Z,70
2017-03-08T12:08:37.308Z,65
2017-03-08T12:09:47.133Z,70
2017-03-08T12:10:57.330Z,65
2017-03-08T12:12:07.105Z,65
2017-03-08T12:13:17.321Z,65
2017-03-08T12:14:27.342Z,70
2017-03-08T12:15:36.699Z,70
2017-03-08T12:16:46.472Z,70
2017-03-08T12:17:56.741Z,70
2017-03-08T12:19:06.538Z,75
2017-03-08T12:20:16.306Z,85
2017-03-08T12:21:26.513Z,85
2017-03-08T12:22:36.279Z,75
2017-03-08T12:23:46.091Z,70
2017-03-08T12:24:55.860Z,70
2017-03-08T12:26:05.630Z,70
2017-03-08T12:27:15.871Z,75
2017-03-08T12:28:26.895Z,75
2017-03-08T12:29:38.800Z,75
2017-03-08T12:30:50.685Z,75
2017-03-08T12:32:03.635Z,75
2017-03-08T12:33:14.741Z,70
2017-03-08T12:34:24.942Z,70
2017-03-08T12:35:34.755Z,65
2017-03-08T12:36:44.078Z,65
2017-03-08T12:37:53.846Z,65
2017-03-08T12:39:03.607Z,65
2017-03-08T12:40:13.364Z,65
2017-03-08T12:41:23.170Z,65
2017-03-08T12:42:32.932Z,60
2017-03-08T12:43:43.148Z,60
2017-03-08T12:44:52.917Z,60
2017-03-08T12:46:02.689Z,55
2017-03-08T12:47:12.931Z,55
2017-03-08T12:48:22.684Z,55
2017-03-08T12:49:32.464Z,50
2017-03-08T12:50:42.699Z,50
2017-03-08T12:51:52.900Z,50
2017-03-08T12:53:02.713Z,50
2017-03-08T12:54:12.493Z,45
2017-03-08T12:55:21.809Z,45
2017-03-08T12:56:31.577Z,45
2017-03-08T12:57:41.338Z,40
2017-03-08T12:58:51.615Z,40
2017-03-08T13:00:01.803Z,45
2017-03-08T13:01:12.054Z,45
2017-03-08T13:02:21.839Z,45
2017-03-08T13:03:32.060Z,40
2017-03-08T13:04:41.861Z,40
2017-03-08T13:05:51.638Z,40
2017-03-08T13:07:01.420Z,40
2017-03-08T13:08:11.197Z,40
2017-03-08T13:09:20.965Z,40
2017-03-08T13:10:31.203Z,45
2017-03-08T13:11:40.972Z,45
2017-03-08T13:12:51.173Z,45
2017-03-08T13:14:00.963Z,50
2017-03-08T13:15:10.728Z,50
2017-03-08T13:16:20.557Z,50
2017-03-08T13:17:30.779Z,50
2017-03-08T13:18:40.550Z,50
2017-03-08T13:19:51.187Z,55
2017-03-08T13:21:01.402Z,50
2017-03-08T13:22:11.655Z,50
2017-03-08T13:23:21.452Z,45
2017-03-08T13:24:31.226Z,45
2017-03-08T13:25:41.863Z,45
2017-03-08T13:26:51.608Z,45
2017-03-08T13:28:01.425Z,50
2017-03-08T13:29:11.693Z,55
2017-03-08T13:30:21.646Z,55
2017-03-08T13:31:31.873Z,55
2017-03-08T13:32:41.262Z,55
2017-03-08T13:33:51.305Z,55
2017-03-08T13:35:01.528Z,55
2017-03-08T13:36:11.989Z,55
2017-03-08T13:37:21.627Z,50
2017-03-08T13:38:31.484Z,50
2017-03-08T13:39:41.751Z,50
2017-03-08T13:40:52.838Z,50
2017-03-08T13:42:03.602Z,45
2017-03-08T13:43:13.029Z,45
2017-03-08T13:44:23.628Z,40
2017-03-08T13:45:35.897Z,40
2017-03-08T13:46:46.803Z,35
2017-03-08T13:47:58.384Z,35
2017-03-08T13:49:09.982Z,35
2017-03-08T13:50:22.610Z,35
2017-03-08T13:51:37.907Z,35
2017-03-08T13:52:50.829Z,30
2017-03-08T13:54:03.130Z,30
2017-03-08T13:55:14.703Z,30
2017-03-08T13:56:28.519Z,30
2017-03-08T13:57:42.010Z,30
2017-03-08T13:58:54.808Z,30
2017-03-08T14:00:06.680Z,30
2017-03-08T14:01:18.561Z,30
2017-03-08T14:02:31.076Z,30
2017-03-08T14:03:43.160Z,30
2017-03-08T14:04:56.073Z,25
2017-03-08T14:06:08.466Z,25
2017-03-08T14:07:20.181Z,25
2017-03-08T14:08:31.362Z,20
2017-03-08T14:09:42.379Z,25
2017-03-08T14:10:53.387Z,20
2017-03-08T14:12:04.516Z,20
2017-03-08T14:13:15.929Z,20
2017-03-08T14:14:27.796Z,20
2017-03-08T14:15:38.725Z,20
2017-03-08T14:16:52.041Z,20
2017-03-08T14:18:04.530Z,20
2017-03-08T14:19:15.605Z,20
2017-03-08T14:20:26.304Z,20
2017-03-08T14:21:38.138Z,20
2017-03-08T14:22:51.707Z,15
2017-03-08T14:24:04.177Z,15
2017-03-08T14:25:15.290Z,15
2017-03-08T14:26:25.756Z,20
2017-03-08T14:27:35.581Z,15
2017-03-08T14:28:45.342Z,15
2017-03-08T14:29:55.560Z,15
2017-03-08T14:31:05.377Z,15
2017-03-08T14:32:15.138Z,15
2017-03-08T14:33:24.903Z,15
2017-03-08T14:34:34.319Z,10
2017-03-08T14:35:44.540Z,15
2017-03-08T14:36:55.099Z,10
2017-03-08T14:38:05.315Z,10
2017-03-08T14:39:16.413Z,10
2017-03-08T14:40:26.187Z,10
2017-03-08T14:41:35.967Z,10
2017-03-08T14:42:45.793Z,10
2017-03-08T14:43:55.986Z,10
2017-03-08T14:45:05.335Z,10
2017-03-08T14:46:15.116Z,10
2017-03-08T14:47:24.538Z,10
2017-03-08T14:48:34.811Z,10
2017-03-08T14:49:44.635Z,10
2017-03-08T14:50:55.391Z,10
2017-03-08T14:52:05.593Z,10
2017-03-08T14:53:15.783Z,10
2017-03-08T14:54:25.887Z,15
2017-03-08T14:55:36.653Z,10
2017-03-08T14:56:47.334Z,5
2017-03-08T14:57:57.610Z,10
2017-03-08T14:59:07.836Z,5
2017-03-08T15:00:17.843Z,10
2017-03-08T15:01:27.592Z,10
2017-03-08T15:02:37.805Z,10
2017-03-08T15:03:48.006Z,5
2017-03-08T15:04:57.781Z,10
2017-03-08T15:06:08.192Z,5
2017-03-08T15:07:17.946Z,5
2017-03-08T15:08:27.619Z,10
2017-03-08T15:09:37.388Z,10
2017-03-08T15:10:47.149Z,10
2017-03-08T15:11:57.071Z,10
2017-03-08T15:13:06.837Z,5
2017-03-08T15:14:17.040Z,5
2017-03-08T15:15:27.238Z,5
2017-03-08T15:16:37.059Z,5
2017-03-08T15:17:47.015Z,5
2017-03-08T15:18:56.789Z,5
2017-03-08T15:20:07.235Z,10
2017-03-08T15:21:17.006Z,5
2017-03-08T15:22:27.204Z,5
2017-03-08T15:23:37.567Z,5
2017-03-08T15:24:47.775Z,5
2017-03-08T15:25:57.585Z,5
2017-03-08T15:27:07.438Z,5
2017-03-08T15:28:17.203Z,5
2017-03-08T15:29:27.456Z,5
2017-03-08T15:30:37.674Z,5
2017-03-08T15:31:47.029Z,5
2017-03-08T15:32:57.220Z,5
2017-03-08T15:34:06.545Z,5
2017-03-08T15:35:15.946Z,5
2017-03-08T15:36:25.723Z,5
2017-03-08T15:37:35.481Z,5
2017-03-08T15:38:45.850Z,5
2017-03-08T15:39:55.687Z,5
2017-03-08T15:41:05.676Z,5
2017-03-08T15:42:15.609Z,5
2017-03-08T15:43:25.463Z,5
2017-03-08T15:44:35.228Z,5
2017-03-08T15:45:46.190Z,5
2017-03-08T15:46:56.022Z,5
2017-03-08T15:48:06.666Z,5
2017-03-08T15:49:16.447Z,5
2017-03-08T15:50:26.202Z,5
2017-03-08T15:51:36.407Z,5
2017-03-08T15:52:47.116Z,5
2017-03-08T15:53:56.901Z,5
2017-03-08T15:55:07.102Z,5
2017-03-08T15:56:16.968Z,0
2017-03-08T15:57:26.761Z,5
2017-03-08T15:58:37.530Z,5
2017-03-08T15:59:47.279Z,5
2017-03-08T16:00:57.044Z,5
2017-03-08T16:02:06.978Z,5
2017-03-08T16:03:17.191Z,5
2017-03-08T16:04:27.013Z,5
2017-03-08T16:05:37.232Z,5
2017-03-08T16:06:48.043Z,5
2017-03-08T16:07:57.796Z,5
2017-03-08T16:09:07.569Z,5
2017-03-08T16:10:18.267Z,5
2017-03-08T16:11:28.491Z,5
2017-03-08T16:12:38.267Z,5
2017-03-08T16:13:49.096Z,0
2017-03-08T16:14:59.309Z,5
2017-03-08T16:16:10.976Z,0
2017-03-08T16:17:22.840Z,0
2017-03-08T16:18:34.126Z,0
2017-03-08T16:19:45.704Z,0
2017-03-08T16:21:00.669Z,0
2017-03-08T16:22:14.403Z,0
2017-03-08T16:23:26.703Z,0
2017-03-08T16:24:37.943Z,0
2017-03-08T16:25:49.597Z,0
2017-03-08T16:27:01.314Z,0
2017-03-08T16:28:12.819Z,0
2017-03-08T16:29:24.943Z,0
2017-03-08T16:30:37.577Z,0
2017-03-08T16:31:51.903Z,0
2017-03-08T16:33:05.564Z,0
2017-03-08T16:34:16.881Z,0
2017-03-08T16:35:31.599Z,0
2017-03-08T16:36:43.436Z,0
2017-03-08T16:37:55.709Z,0
2017-03-08T16:39:07.418Z,0
2017-03-08T16:40:17.477Z,0
2017-03-08T16:41:28.352Z,0
2017-03-08T16:42:40.582Z,0
2017-03-08T16:43:53.239Z,0
2017-03-08T16:45:05.630Z,0
2017-03-08T16:46:17.309Z,0
2017-03-08T16:47:28.131Z,0
2017-03-08T16:48:38.424Z,0
2017-03-08T16:49:49.713Z,0
2017-03-08T16:51:00.316Z,0
2017-03-08T16:52:10.677Z,0
2017-03-08T16:53:20.726Z,0
2017-03-08T16:54:32.898Z,0
2017-03-08T16:55:45.335Z,0